createdAt,value
2018-10-18T00:00:28.455Z,1008.50
2018-10-18T00:01:28.448Z,1008.49
2018-10-18T00:02:28.434Z,1008.49
2018-10-18T00:03:28.636Z,1008.52
2018-10-18T00:04:28.413Z,1008.49
2018-10-18T00:05:28.406Z,1008.45
2018-10-18T00:06:28.389Z,1008.49
2018-10-18T00:07:28.372Z,1008.46
2018-10-18T00:08:28.393Z,1008.48
2018-10-18T00:09:28.355Z,1008.48
2018-10-18T00:10:28.344Z,1008.46
2018-10-18T00:11:28.336Z,1008.47
2018-10-18T00:12:28.315Z,1008.46
2018-10-18T00:13:28.343Z,1008.47
2018-10-18T00:14:28.300Z,1008.53
2018-10-18T00:15:28.292Z,1008.48
2018-10-18T00:16:28.275Z,1008.48
2018-10-18T00:17:28.261Z,1008.47
2018-10-18T00:18:28.268Z,1008.49
2018-10-18T00:19:28.240Z,1008.49
2018-10-18T00:20:28.226Z,1008.47
2018-10-18T00:21:28.218Z,1008.50
2018-10-18T00:22:28.203Z,1008.45
2018-10-18T00:23:28.219Z,1008.47
2018-10-18T00:24:28.178Z,1008.47
2018-10-18T00:25:28.169Z,1008.52
2018-10-18T00:26:28.164Z,1008.47
2018-10-18T00:27:28.146Z,1008.46
2018-10-18T00:28:28.162Z,1008.51
2018-10-18T00:29:28.125Z,1008.53
2018-10-18T00:30:28.117Z,1008.45
2018-10-18T00:31:28.103Z,1008.52
2018-10-18T00:32:28.090Z,1008.56
2018-10-18T00:33:28.106Z,1008.53
2018-10-18T00:34:28.072Z,1008.53
2018-10-18T00:35:28.056Z,1008.57
2018-10-18T00:36:28.046Z,1008.57
2018-10-18T00:37:28.037Z,1008.60
2018-10-18T00:38:28.018Z,1008.59
2018-10-18T00:39:28.028Z,1008.59
2018-10-18T00:40:28.003Z,1008.60
2018-10-18T00:41:27.990Z,1008.58
2018-10-18T00:42:27.975Z,1008.61
2018-10-18T00:43:27.969Z,1008.61
2018-10-18T00:44:27.979Z,1008.59
2018-10-18T00:45:27.948Z,1008.58
2018-10-18T00:46:27.932Z,1008.60
2018-10-18T00:47:27.917Z,1008.60
2018-10-18T00:48:27.910Z,1008.66
2018-10-18T00:49:27.900Z,1008.63
2018-10-18T00:50:27.903Z,1008.63
2018-10-18T00:51:27.876Z,1008.65
2018-10-18T00:52:27.860Z,1008.67
2018-10-18T00:53:27.844Z,1008.65
2018-10-18T00:54:27.848Z,1008.73
2018-10-18T00:55:27.861Z,1008.74
2018-10-18T00:56:27.812Z,1008.77
2018-10-18T00:57:27.811Z,1008.75
2018-10-18T00:58:27.792Z,1008.80
2018-10-18T00:59:27.778Z,1008.81
2018-10-18T01:00:27.774Z,1008.82
2018-10-18T01:01:27.777Z,1008.78
2018-10-18T01:02:27.753Z,1008.82
2018-10-18T01:03:27.732Z,1008.83
2018-10-18T01:04:27.719Z,1008.82
2018-10-18T01:05:27.708Z,1008.85
2018-10-18T01:06:27.720Z,1008.80
2018-10-18T01:07:27.688Z,1008.85
2018-10-18T01:08:27.682Z,1008.86
2018-10-18T01:09:27.672Z,1008.91
2018-10-18T01:10:27.651Z,1008.90
2018-10-18T01:11:27.662Z,1008.95
2018-10-18T01:12:27.862Z,1008.91
2018-10-18T01:13:27.623Z,1008.90
2018-10-18T01:14:27.609Z,1008.97
2018-10-18T01:15:27.603Z,1008.94
2018-10-18T01:16:27.611Z,1008.84
2018-10-18T01:17:27.576Z,1008.85
2018-10-18T01:18:27.572Z,1008.92
2018-10-18T01:19:27.558Z,1008.91
2018-10-18T01:20:27.538Z,1008.87
2018-10-18T01:21:27.528Z,1008.89
2018-10-18T01:22:27.535Z,1008.90
2018-10-18T01:23:27.501Z,1008.91
2018-10-18T01:24:27.494Z,1008.87
2018-10-18T01:25:27.484Z,1008.92
2018-10-18T01:26:27.471Z,1008.87
2018-10-18T01:27:27.487Z,1008.91
2018-10-18T01:28:27.446Z,1008.95
2018-10-18T01:29:27.436Z,1008.97
2018-10-18T01:30:27.428Z,1008.96
2018-10-18T01:31:27.411Z,1008.97
2018-10-18T01:32:27.439Z,1008.97
2018-10-18T01:33:27.394Z,1008.99
2018-10-18T01:34:27.383Z,1008.97
2018-10-18T01:35:27.366Z,1009.01
2018-10-18T01:36:27.357Z,1009.06
2018-10-18T01:37:27.347Z,1009.11
2018-10-18T01:38:27.354Z,1009.09
2018-10-18T01:39:27.328Z,1009.12
2018-10-18T01:40:27.307Z,1009.13
2018-10-18T01:41:27.299Z,1009.20
2018-10-18T01:42:27.314Z,1009.11
2018-10-18T01:43:27.274Z,1009.17
2018-10-18T01:44:27.272Z,1009.14
2018-10-18T01:45:27.257Z,1009.17
2018-10-18T01:46:27.244Z,1009.18
2018-10-18T01:47:27.239Z,1009.09
2018-10-18T01:48:27.241Z,1009.06
2018-10-18T01:49:27.207Z,1009.02
2018-10-18T01:50:27.200Z,1009.03
2018-10-18T01:51:27.185Z,1009.05
2018-10-18T01:52:27.170Z,1009.07
2018-10-18T01:53:27.195Z,1009.08
2018-10-18T01:54:27.154Z,1009.08
2018-10-18T01:55:27.145Z,1009.06
2018-10-18T01:56:27.127Z,1009.09
2018-10-18T01:57:27.113Z,1009.08
2018-10-18T01:58:27.131Z,1009.10
2018-10-18T01:59:27.095Z,1009.09
2018-10-18T02:00:27.086Z,1009.10
2018-10-18T02:01:27.072Z,1009.07
2018-10-18T02:02:27.061Z,1009.06
2018-10-18T02:03:27.082Z,1009.08
2018-10-18T02:04:27.040Z,1009.09
2018-10-18T02:05:27.029Z,1009.07
2018-10-18T02:06:27.015Z,1009.11
2018-10-18T02:07:27.006Z,1009.10
2018-10-18T02:08:26.989Z,1009.12
2018-10-18T02:09:27.012Z,1009.13
2018-10-18T02:10:26.968Z,1009.14
2018-10-18T02:11:26.960Z,1009.11
2018-10-18T02:12:26.947Z,1009.13
2018-10-18T02:13:26.958Z,1009.12
2018-10-18T02:14:26.966Z,1009.12
2018-10-18T02:15:26.944Z,1009.15
2018-10-18T02:16:26.916Z,1009.14
2018-10-18T02:17:26.887Z,1009.11
2018-10-18T02:18:26.881Z,1009.12
2018-10-18T02:19:26.864Z,1009.12
2018-10-18T02:20:26.855Z,1009.12
2018-10-18T02:21:26.870Z,1009.11
2018-10-18T02:22:26.874Z,1009.15
2018-10-18T02:23:26.819Z,1009.12
2018-10-18T02:24:26.812Z,1009.10
2018-10-18T02:25:26.794Z,1009.12
2018-10-18T02:26:26.808Z,1009.11
2018-10-18T02:27:26.775Z,1009.14
2018-10-18T02:28:26.760Z,1009.15
2018-10-18T02:29:26.752Z,1009.15
2018-10-18T02:30:26.740Z,1009.16
2018-10-18T02:31:26.760Z,1009.17
2018-10-18T02:32:26.712Z,1009.17
2018-10-18T02:33:26.703Z,1009.18
2018-10-18T02:34:26.697Z,1009.20
2018-10-18T02:35:26.676Z,1009.17
2018-10-18T02:36:26.674Z,1009.16
2018-10-18T02:37:26.680Z,1009.16
2018-10-18T02:38:26.648Z,1009.16
2018-10-18T02:39:26.635Z,1009.20
2018-10-18T02:40:26.627Z,1009.28
2018-10-18T02:41:26.607Z,1009.28
2018-10-18T02:42:26.629Z,1009.25
2018-10-18T02:43:26.587Z,1009.27
2018-10-18T02:44:26.578Z,1009.28
2018-10-18T02:45:26.571Z,1009.29
2018-10-18T02:46:26.554Z,1009.31
2018-10-18T02:47:26.566Z,1009.36
2018-10-18T02:48:26.536Z,1009.37
2018-10-18T02:49:26.521Z,1009.38
2018-10-18T02:50:26.505Z,1009.38
2018-10-18T02:51:26.502Z,1009.38
2018-10-18T02:52:26.481Z,1009.40
2018-10-18T02:53:26.493Z,1009.36
2018-10-18T02:54:26.465Z,1009.35
2018-10-18T02:55:26.449Z,1009.35
2018-10-18T02:56:26.435Z,1009.34
2018-10-18T02:57:26.431Z,1009.31
2018-10-18T02:58:26.435Z,1009.33
2018-10-18T02:59:26.405Z,1009.33
2018-10-18T03:00:26.391Z,1009.28
2018-10-18T03:01:26.377Z,1009.24
2018-10-18T03:02:26.396Z,1009.25
2018-10-18T03:03:26.357Z,1009.28
2018-10-18T03:04:26.348Z,1009.29
2018-10-18T03:05:26.334Z,1009.28
2018-10-18T03:06:26.337Z,1009.30
2018-10-18T03:07:26.316Z,1009.29
2018-10-18T03:08:26.333Z,1009.30
2018-10-18T03:09:26.288Z,1009.32
2018-10-18T03:10:26.283Z,1009.31
2018-10-18T03:11:26.261Z,1009.27
2018-10-18T03:12:26.259Z,1009.29
2018-10-18T03:13:26.238Z,1009.29
2018-10-18T03:14:26.266Z,1009.31
2018-10-18T03:15:26.224Z,1009.27
2018-10-18T03:16:26.204Z,1009.29
2018-10-18T03:17:26.204Z,1009.30
2018-10-18T03:18:26.181Z,1009.29
2018-10-18T03:19:26.180Z,1009.29
2018-10-18T03:20:26.181Z,1009.23
2018-10-18T03:21:26.145Z,1009.25
2018-10-18T03:22:26.142Z,1009.24
2018-10-18T03:23:26.125Z,1009.27
2018-10-18T03:24:26.115Z,1009.29
2018-10-18T03:25:26.123Z,1009.29
2018-10-18T03:26:26.093Z,1009.29
2018-10-18T03:27:26.080Z,1009.31
2018-10-18T03:28:26.065Z,1009.29
2018-10-18T03:29:26.060Z,1009.32
2018-10-18T03:30:26.067Z,1009.28
2018-10-18T03:31:26.028Z,1009.36
2018-10-18T03:32:26.027Z,1009.33
2018-10-18T03:33:26.011Z,1009.31
2018-10-18T03:34:25.995Z,1009.34
2018-10-18T03:35:26.006Z,1009.40
2018-10-18T03:36:25.975Z,1009.41
2018-10-18T03:37:25.966Z,1009.41
2018-10-18T03:38:25.946Z,1009.42
2018-10-18T03:39:25.941Z,1009.36
2018-10-18T03:40:25.947Z,1009.44
2018-10-18T03:41:25.929Z,1009.44
2018-10-18T03:42:25.909Z,1009.42
2018-10-18T03:43:25.894Z,1009.42
2018-10-18T03:44:25.885Z,1009.42
2018-10-18T03:45:25.887Z,1009.43
2018-10-18T03:46:25.862Z,1009.44
2018-10-18T03:47:25.844Z,1009.45
2018-10-18T03:48:25.835Z,1009.39
2018-10-18T03:49:25.839Z,1009.41
2018-10-18T03:50:25.835Z,1009.42
2018-10-18T03:51:25.800Z,1009.45
2018-10-18T03:52:25.786Z,1009.42
2018-10-18T03:53:25.771Z,1009.51
2018-10-18T03:54:25.768Z,1009.45
2018-10-18T03:55:25.772Z,1009.50
2018-10-18T03:56:25.740Z,1009.47
2018-10-18T03:57:25.734Z,1009.51
2018-10-18T03:58:25.712Z,1009.56
2018-10-18T03:59:25.758Z,1009.51
2018-10-18T04:00:25.711Z,1009.55
2018-10-18T04:01:25.681Z,1009.56
2018-10-18T04:02:25.672Z,1009.59
2018-10-18T04:03:25.660Z,1009.57
2018-10-18T04:04:25.646Z,1009.52
2018-10-18T04:05:25.664Z,1009.58
2018-10-18T04:06:25.627Z,1009.54
2018-10-18T04:07:25.610Z,1009.59
2018-10-18T04:08:25.601Z,1009.59
2018-10-18T04:09:25.587Z,1009.56
2018-10-18T04:10:25.601Z,1009.56
2018-10-18T04:11:25.567Z,1009.57
2018-10-18T04:12:25.608Z,1009.60
2018-10-18T04:13:25.543Z,1009.57
2018-10-18T04:14:25.542Z,1009.56
2018-10-18T04:15:25.542Z,1009.55
2018-10-18T04:16:25.511Z,1009.53
2018-10-18T04:17:25.496Z,1009.56
2018-10-18T04:18:25.563Z,1009.55
2018-10-18T04:19:25.472Z,1009.56
2018-10-18T04:20:25.485Z,1009.52
2018-10-18T04:21:25.459Z,1009.55
2018-10-18T04:22:25.431Z,1009.52
2018-10-18T04:23:25.427Z,1009.54
2018-10-18T04:24:25.494Z,1009.53
2018-10-18T04:25:25.449Z,1009.56
2018-10-18T04:26:25.390Z,1009.55
2018-10-18T04:27:25.378Z,1009.49
2018-10-18T04:28:25.368Z,1009.55
2018-10-18T04:29:25.353Z,1009.53
2018-10-18T04:30:25.344Z,1009.57
2018-10-18T04:31:25.357Z,1009.53
2018-10-18T04:32:25.320Z,1009.58
2018-10-18T04:33:25.313Z,1009.54
2018-10-18T04:34:25.297Z,1009.57
2018-10-18T04:35:25.280Z,1009.58
2018-10-18T04:36:25.299Z,1009.55
2018-10-18T04:37:25.343Z,1009.54
2018-10-18T04:38:25.245Z,1009.57
2018-10-18T04:39:25.236Z,1009.62
2018-10-18T04:40:25.230Z,1009.57
2018-10-18T04:41:25.241Z,1009.60
2018-10-18T04:42:25.197Z,1009.56
2018-10-18T04:43:25.193Z,1009.57
2018-10-18T04:44:25.177Z,1009.60
2018-10-18T04:45:25.161Z,1009.59
2018-10-18T04:46:25.187Z,1009.63
2018-10-18T04:47:25.289Z,1009.60
2018-10-18T04:48:25.194Z,1009.60
2018-10-18T04:49:25.143Z,1009.62
2018-10-18T04:50:25.106Z,1009.63
2018-10-18T04:51:25.123Z,1009.65
2018-10-18T04:52:25.083Z,1009.65
2018-10-18T04:53:25.072Z,1009.62
2018-10-18T04:54:25.056Z,1009.66
2018-10-18T04:55:25.051Z,1009.69
2018-10-18T04:56:25.059Z,1009.75
2018-10-18T04:57:25.023Z,1009.67
2018-10-18T04:58:25.017Z,1009.72
2018-10-18T04:59:25.001Z,1009.71
2018-10-18T05:00:24.992Z,1009.78
2018-10-18T05:01:25.236Z,1009.78
2018-10-18T05:02:24.970Z,1009.75
2018-10-18T05:03:24.960Z,1009.73
2018-10-18T05:04:24.945Z,1009.75
2018-10-18T05:05:24.931Z,1009.73
2018-10-18T05:06:24.945Z,1009.72
2018-10-18T05:07:24.904Z,1009.73
2018-10-18T05:08:24.902Z,1009.66
2018-10-18T05:09:24.888Z,1009.66
2018-10-18T05:10:24.877Z,1009.67
2018-10-18T05:11:24.956Z,1009.63
2018-10-18T05:12:24.879Z,1009.65
2018-10-18T05:13:24.838Z,1009.66
2018-10-18T05:14:24.833Z,1009.64
2018-10-18T05:15:24.819Z,1009.63
2018-10-18T05:16:24.833Z,1009.62
2018-10-18T05:17:24.788Z,1009.66
2018-10-18T05:18:24.784Z,1009.66
2018-10-18T05:19:24.770Z,1009.61
2018-10-18T05:20:24.756Z,1009.60
2018-10-18T05:21:24.763Z,1009.58
2018-10-18T05:22:24.732Z,1009.62
2018-10-18T05:23:24.726Z,1009.62
2018-10-18T05:24:24.712Z,1009.62
2018-10-18T05:25:24.714Z,1009.71
2018-10-18T05:26:24.711Z,1009.69
2018-10-18T05:27:24.676Z,1009.72
2018-10-18T05:28:24.664Z,1009.78
2018-10-18T05:29:24.655Z,1009.76
2018-10-18T05:30:24.639Z,1009.78
2018-10-18T05:31:24.652Z,1009.78
2018-10-18T05:32:24.618Z,1009.78
2018-10-18T05:33:24.609Z,1009.71
2018-10-18T05:34:24.592Z,1009.74
2018-10-18T05:35:24.585Z,1009.76
2018-10-18T05:36:24.601Z,1009.76
2018-10-18T05:37:24.574Z,1009.78
2018-10-18T05:38:24.548Z,1009.81
2018-10-18T05:39:24.531Z,1009.82
2018-10-18T05:40:24.529Z,1009.88
2018-10-18T05:41:24.517Z,1009.88
2018-10-18T05:42:24.521Z,1009.89
2018-10-18T05:43:24.484Z,1009.89
2018-10-18T05:44:24.481Z,1009.85
2018-10-18T05:45:24.462Z,1009.89
2018-10-18T05:46:24.463Z,1009.92
2018-10-18T05:47:24.528Z,1009.92
2018-10-18T05:48:24.426Z,1009.89
2018-10-18T05:49:24.420Z,1009.93
2018-10-18T05:50:24.410Z,1009.94
2018-10-18T05:51:24.395Z,1009.93
2018-10-18T05:52:24.408Z,1009.97
2018-10-18T05:53:24.445Z,1009.96
2018-10-18T05:54:24.363Z,1009.99
2018-10-18T05:55:24.353Z,1010.04
2018-10-18T05:56:24.371Z,1010.06
2018-10-18T05:57:24.349Z,1010.12
2018-10-18T05:58:24.314Z,1010.09
2018-10-18T05:59:24.308Z,1010.09
2018-10-18T06:00:24.381Z,1010.04
2018-10-18T06:01:24.278Z,1010.07
2018-10-18T06:02:24.291Z,1010.05
2018-10-18T06:03:24.253Z,1010.05
2018-10-18T06:04:24.249Z,1010.05
2018-10-18T06:05:24.233Z,1010.07
2018-10-18T06:06:24.227Z,1010.01
2018-10-18T06:07:24.232Z,1010.06
2018-10-18T06:08:24.197Z,1010.07
2018-10-18T06:09:24.184Z,1010.06
2018-10-18T06:10:24.209Z,1010.11
2018-10-18T06:11:24.163Z,1010.09
2018-10-18T06:12:24.176Z,1010.12
2018-10-18T06:13:24.145Z,1010.12
2018-10-18T06:14:24.124Z,1010.06
2018-10-18T06:15:24.118Z,1010.14
2018-10-18T06:16:24.104Z,1010.09
2018-10-18T06:17:24.110Z,1010.10
2018-10-18T06:18:24.087Z,1010.13
2018-10-18T06:19:24.069Z,1010.17
2018-10-18T06:20:24.066Z,1010.13
2018-10-18T06:21:24.049Z,1010.20
2018-10-18T06:22:24.052Z,1010.11
2018-10-18T06:23:24.083Z,1010.18
2018-10-18T06:24:24.011Z,1010.14
2018-10-18T06:25:24.011Z,1010.18
2018-10-18T06:26:23.983Z,1010.22
2018-10-18T06:27:23.992Z,1010.20
2018-10-18T06:28:23.961Z,1010.24
2018-10-18T06:29:23.948Z,1010.21
2018-10-18T06:30:23.944Z,1010.22
2018-10-18T06:31:23.928Z,1010.20
2018-10-18T06:32:23.940Z,1010.21
2018-10-18T06:33:23.910Z,1010.21
2018-10-18T06:34:23.889Z,1010.18
2018-10-18T06:35:23.886Z,1010.20
2018-10-18T06:36:23.869Z,1010.22
2018-10-18T06:37:24.011Z,1010.26
2018-10-18T06:38:23.851Z,1010.26
2018-10-18T06:39:23.936Z,1010.30
2018-10-18T06:40:23.820Z,1010.27
2018-10-18T06:41:23.816Z,1010.27
2018-10-18T06:42:23.825Z,1010.29
2018-10-18T06:43:23.793Z,1010.27
2018-10-18T06:44:23.772Z,1010.26
2018-10-18T06:45:23.773Z,1010.21
2018-10-18T06:46:23.751Z,1010.29
2018-10-18T06:47:23.817Z,1010.29
2018-10-18T06:48:23.735Z,1010.23
2018-10-18T06:49:23.732Z,1010.25
2018-10-18T06:50:23.715Z,1010.25
2018-10-18T06:51:23.701Z,1010.25
2018-10-18T06:52:23.701Z,1010.25
2018-10-18T06:53:23.676Z,1010.26
2018-10-18T06:54:23.656Z,1010.26
2018-10-18T06:55:23.654Z,1010.17
2018-10-18T06:56:23.633Z,1010.19
2018-10-18T06:57:23.649Z,1010.23
2018-10-18T06:58:23.608Z,1010.22
2018-10-18T06:59:23.597Z,1010.23
2018-10-18T07:00:23.654Z,1010.22
2018-10-18T07:01:23.574Z,1010.29
2018-10-18T07:02:23.593Z,1010.35
2018-10-18T07:03:23.558Z,1010.36
2018-10-18T07:04:23.539Z,1010.33
2018-10-18T07:05:23.532Z,1010.38
2018-10-18T07:06:23.521Z,1010.38
2018-10-18T07:07:23.533Z,1010.35
2018-10-18T07:08:23.503Z,1010.38
2018-10-18T07:09:23.489Z,1010.45
2018-10-18T07:10:23.470Z,1010.37
2018-10-18T07:11:23.457Z,1010.38
2018-10-18T07:12:23.453Z,1010.42
2018-10-18T07:13:23.462Z,1010.40
2018-10-18T07:14:23.429Z,1010.42
2018-10-18T07:15:23.421Z,1010.39
2018-10-18T07:16:23.398Z,1010.39
2018-10-18T07:17:23.395Z,1010.42
2018-10-18T07:18:23.374Z,1010.41
2018-10-18T07:19:23.391Z,1010.40
2018-10-18T07:20:23.355Z,1010.39
2018-10-18T07:21:23.345Z,1010.44
2018-10-18T07:22:23.337Z,1010.38
2018-10-18T07:23:23.321Z,1010.43
2018-10-18T07:24:23.333Z,1010.46
2018-10-18T07:25:23.442Z,1010.45
2018-10-18T07:26:23.282Z,1010.42
2018-10-18T07:27:23.273Z,1010.45
2018-10-18T07:28:23.259Z,1010.42
2018-10-18T07:29:23.278Z,1010.45
2018-10-18T07:30:23.241Z,1010.41
2018-10-18T07:31:23.232Z,1010.47
2018-10-18T07:32:23.216Z,1010.43
2018-10-18T07:33:23.208Z,1010.44
2018-10-18T07:34:23.215Z,1010.44
2018-10-18T07:35:23.182Z,1010.41
2018-10-18T07:36:23.172Z,1010.42
2018-10-18T07:37:23.164Z,1010.49
2018-10-18T07:38:23.143Z,1010.47
2018-10-18T07:39:23.163Z,1010.48
2018-10-18T07:40:23.124Z,1010.50
2018-10-18T07:41:23.147Z,1010.50
2018-10-18T07:42:23.106Z,1010.42
2018-10-18T07:43:23.088Z,1010.41
2018-10-18T07:44:23.101Z,1010.46
2018-10-18T07:45:23.080Z,1010.44
2018-10-18T07:46:23.064Z,1010.46
2018-10-18T07:47:23.050Z,1010.47
2018-10-18T07:48:23.030Z,1010.52
2018-10-18T07:49:23.049Z,1010.57
2018-10-18T07:50:23.012Z,1010.55
2018-10-18T07:51:22.995Z,1010.53
2018-10-18T07:52:22.993Z,1010.58
2018-10-18T07:53:23.002Z,1010.58
2018-10-18T07:54:22.992Z,1010.64
2018-10-18T07:55:22.958Z,1010.66
2018-10-18T07:56:22.938Z,1010.72
2018-10-18T07:57:22.932Z,1010.73
2018-10-18T07:58:22.920Z,1010.76
2018-10-18T07:59:22.935Z,1010.75
2018-10-18T08:00:23.049Z,1010.76
2018-10-18T08:01:22.883Z,1010.69
2018-10-18T08:02:22.874Z,1010.74
2018-10-18T08:03:22.864Z,1010.75
2018-10-18T08:04:22.850Z,1010.78
2018-10-18T08:05:22.862Z,1010.79
2018-10-18T08:06:22.833Z,1010.78
2018-10-18T08:07:22.821Z,1010.82
2018-10-18T08:08:22.799Z,1010.75
2018-10-18T08:09:22.800Z,1010.79
2018-10-18T08:10:22.800Z,1010.77
2018-10-18T08:11:22.770Z,1010.78
2018-10-18T08:12:22.764Z,1010.73
2018-10-18T08:13:22.749Z,1010.69
2018-10-18T08:14:22.735Z,1010.80
2018-10-18T08:15:22.751Z,1010.77
2018-10-18T08:16:22.719Z,1010.79
2018-10-18T08:17:22.769Z,1010.80
2018-10-18T08:18:22.690Z,1010.80
2018-10-18T08:19:22.678Z,1010.80
2018-10-18T08:20:22.697Z,1010.85
2018-10-18T08:21:22.658Z,1010.89
2018-10-18T08:22:22.655Z,1010.89
2018-10-18T08:23:22.634Z,1010.93
2018-10-18T08:24:22.627Z,1010.90
2018-10-18T08:25:22.637Z,1010.91
2018-10-18T08:26:22.598Z,1010.94
2018-10-18T08:27:22.593Z,1010.93
2018-10-18T08:28:22.573Z,1010.95
2018-10-18T08:29:22.565Z,1010.87
2018-10-18T08:30:22.580Z,1010.96
2018-10-18T08:31:22.563Z,1010.90
2018-10-18T08:32:22.528Z,1010.94
2018-10-18T08:33:22.525Z,1010.99
2018-10-18T08:34:22.512Z,1010.94
2018-10-18T08:35:22.521Z,1010.96
2018-10-18T08:36:22.490Z,1010.94
2018-10-18T08:37:22.483Z,1011.03
2018-10-18T08:38:22.459Z,1011.05
2018-10-18T08:39:22.457Z,1011.04
2018-10-18T08:40:22.462Z,1011.05
2018-10-18T08:41:22.429Z,1011.03
2018-10-18T08:42:22.421Z,1011.05
2018-10-18T08:43:22.403Z,1011.07
2018-10-18T08:44:22.433Z,1011.10
2018-10-18T08:45:22.412Z,1011.06
2018-10-18T08:46:22.376Z,1011.15
2018-10-18T08:47:22.363Z,1011.06
2018-10-18T08:48:22.354Z,1011.06
2018-10-18T08:49:22.335Z,1011.04
2018-10-18T08:50:22.347Z,1011.07
2018-10-18T08:51:22.314Z,1011.12
2018-10-18T08:52:22.307Z,1011.15
2018-10-18T08:53:22.291Z,1011.11
2018-10-18T08:54:22.283Z,1011.11
2018-10-18T08:55:22.291Z,1011.13
2018-10-18T08:56:22.264Z,1011.10
2018-10-18T08:57:22.242Z,1011.14
2018-10-18T08:58:22.241Z,1011.19
2018-10-18T08:59:22.275Z,1011.17
2018-10-18T09:00:22.229Z,1011.12
2018-10-18T09:01:22.204Z,1011.15
2018-10-18T09:02:22.183Z,1011.18
2018-10-18T09:03:22.180Z,1011.18
2018-10-18T09:04:22.167Z,1011.18
2018-10-18T09:05:22.181Z,1011.22
2018-10-18T09:06:22.137Z,1011.19
2018-10-18T09:07:22.126Z,1011.26
2018-10-18T09:08:22.121Z,1011.28
2018-10-18T09:09:22.103Z,1011.17
2018-10-18T09:10:22.121Z,1011.25
2018-10-18T09:11:22.087Z,1011.25
2018-10-18T09:12:22.068Z,1011.22
2018-10-18T09:13:22.064Z,1011.25
2018-10-18T09:14:22.044Z,1011.26
2018-10-18T09:15:22.031Z,1011.28
2018-10-18T09:16:22.055Z,1011.27
2018-10-18T09:17:22.008Z,1011.33
2018-10-18T09:18:22.005Z,1011.32
2018-10-18T09:19:21.994Z,1011.28
2018-10-18T09:20:21.983Z,1011.37
2018-10-18T09:21:21.988Z,1011.35
2018-10-18T09:22:21.954Z,1011.46
2018-10-18T09:23:21.941Z,1011.38
2018-10-18T09:24:21.933Z,1011.54
2018-10-18T09:25:21.919Z,1011.40
2018-10-18T09:26:21.928Z,1011.38
2018-10-18T09:27:21.925Z,1011.42
2018-10-18T09:28:21.899Z,1011.63
2018-10-18T09:29:21.876Z,1011.62
2018-10-18T09:30:21.921Z,1011.56
2018-10-18T09:31:21.878Z,1011.49
2018-10-18T09:32:21.840Z,1011.49
2018-10-18T09:33:21.828Z,1011.63
2018-10-18T09:34:21.822Z,1011.48
2018-10-18T09:35:21.811Z,1011.75
2018-10-18T09:36:21.821Z,1011.64
2018-10-18T09:37:21.783Z,1011.59
2018-10-18T09:38:21.894Z,1011.51
2018-10-18T09:39:21.758Z,1011.60
2018-10-18T09:40:21.755Z,1011.63
2018-10-18T09:41:21.759Z,1011.51
2018-10-18T09:42:21.736Z,1011.44
2018-10-18T09:43:21.722Z,1011.43
2018-10-18T09:44:21.847Z,1011.41
2018-10-18T09:45:21.693Z,1011.66
2018-10-18T09:46:21.708Z,1011.69
2018-10-18T09:47:21.676Z,1011.70
2018-10-18T09:48:21.666Z,1011.67
2018-10-18T09:49:21.651Z,1011.71
2018-10-18T09:50:21.637Z,1011.46
2018-10-18T09:51:21.644Z,1011.71
2018-10-18T09:52:21.614Z,1011.81
2018-10-18T09:53:21.602Z,1011.79
2018-10-18T09:54:21.598Z,1011.86
2018-10-18T09:55:21.671Z,1011.79
2018-10-18T09:56:21.591Z,1011.77
2018-10-18T09:57:21.565Z,1011.73
2018-10-18T09:58:21.550Z,1011.86
2018-10-18T09:59:21.549Z,1011.84
2018-10-18T10:00:21.523Z,1011.72
2018-10-18T10:01:21.542Z,1011.88
2018-10-18T10:02:21.504Z,1011.92
2018-10-18T10:03:21.497Z,1011.88
2018-10-18T10:04:21.602Z,1011.68
2018-10-18T10:05:21.470Z,1011.86
2018-10-18T10:06:21.482Z,1011.62
2018-10-18T10:07:21.454Z,1011.60
2018-10-18T10:08:21.438Z,1011.77
2018-10-18T10:09:21.426Z,1011.58
2018-10-18T10:10:21.423Z,1011.80
2018-10-18T10:11:21.428Z,1011.63
2018-10-18T10:12:21.398Z,1011.61
2018-10-18T10:13:21.586Z,1011.57
2018-10-18T10:14:21.370Z,1011.67
2018-10-18T10:15:21.360Z,1011.55
2018-10-18T10:16:21.377Z,1011.55
2018-10-18T10:17:21.346Z,1011.58
2018-10-18T10:18:21.360Z,1011.60
2018-10-18T10:19:21.322Z,1011.57
2018-10-18T10:20:21.305Z,1011.60
2018-10-18T10:21:21.293Z,1011.91
2018-10-18T10:22:21.302Z,1011.74
2018-10-18T10:23:21.277Z,1011.69
2018-10-18T10:24:21.307Z,1011.90
2018-10-18T10:25:21.255Z,1011.63
2018-10-18T10:26:21.236Z,1011.91
2018-10-18T10:27:21.253Z,1011.94
2018-10-18T10:28:21.216Z,1011.87
2018-10-18T10:29:21.202Z,1011.90
2018-10-18T10:30:21.295Z,1011.66
2018-10-18T10:31:21.187Z,1011.64
2018-10-18T10:32:21.190Z,1011.68
2018-10-18T10:33:21.181Z,1011.63
2018-10-18T10:34:21.142Z,1011.65
2018-10-18T10:35:21.164Z,1011.63
2018-10-18T10:36:21.133Z,1011.94
2018-10-18T10:37:21.143Z,1011.62
2018-10-18T10:38:21.108Z,1011.66
2018-10-18T10:39:21.088Z,1011.67
2018-10-18T10:40:21.086Z,1011.57
2018-10-18T10:41:21.064Z,1011.57
2018-10-18T10:42:21.089Z,1011.60
2018-10-18T10:43:21.052Z,1011.57
2018-10-18T10:44:21.106Z,1011.49
2018-10-18T10:45:21.123Z,1011.48
2018-10-18T10:46:21.160Z,1011.54
2018-10-18T10:47:21.019Z,1011.46
2018-10-18T10:48:21.009Z,1011.49
2018-10-18T10:49:21.042Z,1011.52
2018-10-18T10:50:21.078Z,1011.48
2018-10-18T10:51:20.960Z,1011.46
2018-10-18T10:52:20.967Z,1011.49
2018-10-18T10:53:20.939Z,1011.47
2018-10-18T10:54:20.916Z,1011.49
2018-10-18T10:55:20.915Z,1011.55
2018-10-18T10:56:20.894Z,1011.56
2018-10-18T10:57:20.907Z,1011.90
2018-10-18T10:58:20.880Z,1011.78
2018-10-18T10:59:20.859Z,1011.53
2018-10-18T11:00:20.856Z,1011.54
2018-10-18T11:01:20.842Z,1011.78
2018-10-18T11:02:20.849Z,1011.74
2018-10-18T11:03:20.918Z,1011.72
2018-10-18T11:04:20.808Z,1011.66
2018-10-18T11:05:20.796Z,1011.63
2018-10-18T11:06:20.946Z,1011.47
2018-10-18T11:07:20.790Z,1011.49
2018-10-18T11:08:20.760Z,1011.44
2018-10-18T11:09:20.939Z,1011.34
2018-10-18T11:10:20.738Z,1011.33
2018-10-18T11:11:20.730Z,1011.28
2018-10-18T11:12:20.754Z,1011.27
2018-10-18T11:13:20.703Z,1011.33
2018-10-18T11:14:20.701Z,1011.36
2018-10-18T11:15:20.729Z,1011.32
2018-10-18T11:16:20.674Z,1011.28
2018-10-18T11:17:20.779Z,1011.30
2018-10-18T11:18:20.645Z,1011.31
2018-10-18T11:19:20.638Z,1011.28
2018-10-18T11:20:20.625Z,1011.36
2018-10-18T11:21:20.660Z,1011.57
2018-10-18T11:22:20.629Z,1011.57
2018-10-18T11:23:20.593Z,1011.63
2018-10-18T11:24:20.621Z,1011.63
2018-10-18T11:25:20.568Z,1011.57
2018-10-18T11:26:20.647Z,1011.62
2018-10-18T11:27:20.693Z,1011.61
2018-10-18T11:28:20.559Z,1011.56
2018-10-18T11:29:20.529Z,1011.32
2018-10-18T11:30:20.508Z,1011.36
2018-10-18T11:31:20.502Z,1011.33
2018-10-18T11:32:20.489Z,1011.29
2018-10-18T11:33:20.496Z,1011.33
2018-10-18T11:34:20.505Z,1011.30
2018-10-18T11:35:20.455Z,1011.28
2018-10-18T11:36:20.453Z,1011.28
2018-10-18T11:37:20.432Z,1011.28
2018-10-18T11:38:20.446Z,1011.28
2018-10-18T11:39:20.412Z,1011.30
2018-10-18T11:40:20.399Z,1011.27
2018-10-18T11:41:20.383Z,1011.25
2018-10-18T11:42:20.529Z,1011.20
2018-10-18T11:43:20.382Z,1011.23
2018-10-18T11:44:20.467Z,1011.19
2018-10-18T11:45:20.343Z,1011.23
2018-10-18T11:46:20.336Z,1011.20
2018-10-18T11:47:20.323Z,1011.21
2018-10-18T11:48:20.328Z,1011.24
2018-10-18T11:49:20.301Z,1011.30
2018-10-18T11:50:20.567Z,1011.33
2018-10-18T11:51:20.304Z,1011.29
2018-10-18T11:52:20.262Z,1011.26
2018-10-18T11:53:20.270Z,1011.21
2018-10-18T11:54:20.246Z,1011.17
2018-10-18T11:55:20.225Z,1011.18
2018-10-18T11:56:20.218Z,1011.33
2018-10-18T11:57:20.201Z,1011.24
2018-10-18T11:58:20.221Z,1011.24
2018-10-18T11:59:20.184Z,1011.29
2018-10-18T12:00:20.162Z,1011.32
2018-10-18T12:01:20.228Z,1011.45
2018-10-18T12:02:20.268Z,1011.33
2018-10-18T12:03:20.128Z,1011.33
2018-10-18T12:04:20.149Z,1011.30
2018-10-18T12:05:20.117Z,1011.27